createdAt,value
2022-09-03T00:01:01.063Z,48.71
2022-09-03T00:03:51.759Z,48.46
2022-09-03T00:06:28.755Z,48.99
2022-09-03T00:09:01.996Z,48.72
2022-09-03T00:11:55.263Z,48.94
2022-09-03T00:14:33.250Z,48.45
2022-09-03T00:17:14.563Z,48.28
2022-09-03T00:19:57.949Z,48.37
2022-09-03T00:22:41.999Z,49.99
2022-09-03T00:25:14.643Z,48.67
2022-09-03T00:27:43.795Z,51.03
2022-09-03T00:30:17.156Z,49.24
2022-09-03T00:33:09.604Z,48.17
2022-09-03T00:35:38.994Z,49.30
2022-09-03T00:38:06.295Z,48.89
2022-09-03T00:40:45.627Z,48.46
2022-09-03T00:43:32.792Z,48.66
2022-09-03T00:46:19.612Z,48.61
2022-09-03T00:49:15.847Z,49.44
2022-09-03T00:51:56.935Z,49.19
2022-09-03T00:54:41.908Z,48.75
2022-09-03T00:57:44.829Z,49.91
2022-09-03T01:00:16.610Z,49.90
2022-09-03T01:03:07.047Z,49.66
2022-09-03T01:05:52.689Z,49.85
2022-09-03T01:08:49.309Z,49.20
2022-09-03T01:11:57.445Z,49.63
2022-09-03T01:14:36.584Z,50.17
2022-09-03T01:17:24.970Z,50.17
2022-09-03T01:19:52.356Z,49.91
2022-09-03T01:22:28.991Z,49.51
2022-09-03T01:24:58.882Z,48.98
2022-09-03T01:27:46.798Z,48.28
2022-09-03T01:30:23.010Z,49.18
2022-09-03T01:33:02.535Z,48.59
2022-09-03T01:35:53.144Z,48.18
2022-09-03T01:38:38.406Z,48.74
2022-09-03T01:41:36.252Z,48.15
2022-09-03T01:44:24.589Z,49.09
2022-09-03T01:47:03.034Z,48.53
2022-09-03T01:49:41.498Z,49.00
2022-09-03T01:52:14.365Z,48.91
2022-09-03T01:55:06.614Z,49.64
2022-09-03T01:57:45.960Z,48.99
2022-09-03T02:00:20.740Z,49.95
2022-09-03T02:02:52.287Z,49.78
2022-09-03T02:05:29.749Z,49.60
2022-09-03T02:08:07.985Z,49.74
2022-09-03T02:10:45.759Z,49.63
2022-09-03T02:13:15.940Z,49.64
2022-09-03T02:15:43.767Z,50.49
2022-09-03T02:18:15.389Z,49.14
2022-09-03T02:20:42.792Z,49.71
2022-09-03T02:23:09.858Z,49.42
2022-09-03T02:25:42.580Z,49.49
2022-09-03T02:28:17.220Z,49.17
2022-09-03T02:30:55.207Z,49.38
2022-09-03T02:33:22.649Z,49.67
2022-09-03T02:35:50.802Z,49.92
2022-09-03T02:38:21.218Z,49.96
2022-09-03T02:40:48.888Z,49.73
2022-09-03T02:43:25.968Z,50.74
2022-09-03T02:45:57.268Z,50.34
2022-09-03T02:48:24.831Z,51.20
2022-09-03T02:50:52.035Z,52.22
2022-09-03T02:53:19.060Z,51.83
2022-09-03T02:55:46.392Z,50.93
2022-09-03T02:58:13.623Z,50.41
2022-09-03T03:00:40.614Z,49.95
2022-09-03T03:03:07.943Z,50.96
2022-09-03T03:05:46.944Z,50.27
2022-09-03T03:08:17.254Z,51.21
2022-09-03T03:10:45.183Z,51.36
2022-09-03T03:13:12.872Z,52.92
2022-09-03T03:15:40.725Z,52.61
2022-09-03T03:18:08.032Z,51.80
2022-09-03T03:20:35.405Z,51.21
2022-09-03T03:23:02.609Z,51.60
2022-09-03T03:25:31.780Z,51.66
2022-09-03T03:27:58.933Z,51.46
2022-09-03T03:30:26.420Z,51.82
2022-09-03T03:32:54.487Z,51.41
2022-09-03T03:35:21.851Z,50.98
2022-09-03T03:37:49.261Z,51.06
2022-09-03T03:40:16.602Z,51.94
2022-09-03T03:42:43.999Z,50.96
2022-09-03T03:45:11.127Z,51.10
2022-09-03T03:47:38.366Z,52.42
2022-09-03T03:50:05.984Z,50.75
2022-09-03T03:52:32.972Z,50.35
2022-09-03T03:54:59.912Z,49.64
2022-09-03T03:57:31.026Z,49.28
2022-09-03T03:59:58.062Z,50.47
2022-09-03T04:02:25.170Z,50.35
2022-09-03T04:04:54.974Z,50.20
2022-09-03T04:07:22.158Z,49.72
2022-09-03T04:09:49.567Z,49.47
2022-09-03T04:12:19.287Z,50.66
2022-09-03T04:14:46.301Z,49.67
2022-09-03T04:17:13.292Z,49.01
2022-09-03T04:19:40.344Z,49.29
2022-09-03T04:22:07.366Z,49.42
2022-09-03T04:24:35.254Z,49.75
2022-09-03T04:27:02.705Z,49.76
2022-09-03T04:29:31.368Z,49.71
2022-09-03T04:32:17.119Z,51.07
2022-09-03T04:34:44.207Z,49.94
2022-09-03T04:37:13.701Z,49.14
2022-09-03T04:39:40.978Z,48.61
2022-09-03T04:42:08.155Z,48.82
2022-09-03T04:44:38.433Z,48.62
2022-09-03T04:47:05.685Z,48.22
2022-09-03T04:49:32.858Z,48.43
2022-09-03T04:51:59.877Z,49.15
2022-09-03T04:54:28.113Z,49.42
2022-09-03T04:56:56.576Z,50.37
2022-09-03T04:59:23.555Z,49.93
2022-09-03T05:01:52.818Z,50.06
2022-09-03T05:04:22.104Z,51.32
2022-09-03T05:06:49.109Z,52.93
2022-09-03T05:09:16.314Z,51.06
2022-09-03T05:11:43.311Z,51.74
2022-09-03T05:14:12.730Z,51.10
2022-09-03T05:16:42.516Z,50.87
2022-09-03T05:19:19.744Z,53.73
2022-09-03T05:21:46.798Z,51.68
2022-09-03T05:24:15.337Z,54.18
2022-09-03T05:26:42.266Z,51.46
2022-09-03T05:29:09.493Z,51.89
2022-09-03T05:31:39.312Z,51.27
2022-09-03T05:34:07.308Z,50.11
2022-09-03T05:36:37.006Z,51.02
2022-09-03T05:39:21.591Z,52.09
2022-09-03T05:41:50.623Z,51.56
2022-09-03T05:44:17.778Z,50.86
2022-09-03T05:46:44.791Z,51.28
2022-09-03T05:49:11.953Z,50.65
2022-09-03T05:51:42.608Z,49.98
2022-09-03T05:54:10.559Z,50.05
2022-09-03T05:56:42.863Z,49.18
2022-09-03T05:59:10.511Z,49.21
2022-09-03T06:01:50.382Z,49.26
2022-09-03T06:04:21.281Z,48.40
2022-09-03T06:06:49.018Z,48.96
2022-09-03T06:09:18.471Z,50.02
2022-09-03T06:11:50.086Z,49.78
2022-09-03T06:14:17.926Z,48.53
2022-09-03T06:16:49.721Z,47.29
2022-09-03T06:19:17.225Z,43.78
2022-09-03T06:21:45.498Z,43.25
2022-09-03T06:24:15.052Z,43.46
2022-09-03T06:26:43.012Z,41.97
2022-09-03T06:29:11.300Z,40.16
2022-09-03T06:31:39.332Z,41.00
2022-09-03T06:34:06.446Z,41.24
2022-09-03T06:36:33.835Z,38.52
2022-09-03T06:39:01.609Z,39.14
2022-09-03T06:41:35.438Z,36.77
2022-09-03T06:44:05.264Z,35.77
2022-09-03T06:46:38.982Z,37.14
2022-09-03T06:49:09.039Z,39.71
2022-09-03T06:51:37.792Z,38.31
2022-09-03T06:54:07.034Z,36.78
2022-09-03T06:56:39.987Z,35.20
2022-09-03T06:59:12.918Z,34.56
2022-09-03T07:01:44.441Z,35.83
2022-09-03T07:04:13.650Z,33.68
2022-09-03T07:06:42.740Z,32.17
2022-09-03T07:09:11.640Z,31.13
2022-09-03T07:11:47.361Z,31.67
2022-09-03T07:14:16.272Z,31.35
2022-09-03T07:16:43.893Z,27.96
2022-09-03T07:19:12.165Z,28.75
2022-09-03T07:21:48.792Z,28.36
2022-09-03T07:24:16.260Z,27.83
2022-09-03T07:26:49.568Z,29.36
2022-09-03T07:29:20.473Z,27.86
2022-09-03T07:31:52.192Z,28.22
2022-09-03T07:34:20.451Z,27.22
2022-09-03T07:36:51.305Z,30.90
2022-09-03T07:39:21.788Z,31.42
2022-09-03T07:41:48.879Z,31.29
2022-09-03T07:44:19.875Z,31.53
2022-09-03T07:46:50.286Z,28.72
2022-09-03T07:49:17.414Z,30.13
2022-09-03T07:51:46.638Z,27.38
2022-09-03T07:54:13.605Z,27.15
2022-09-03T07:56:41.201Z,24.95
2022-09-03T07:59:09.452Z,26.47
2022-09-03T08:01:38.420Z,25.70
2022-09-03T08:04:09.592Z,25.41
2022-09-03T08:06:38.072Z,26.87
2022-09-03T08:09:08.270Z,25.64
2022-09-03T08:11:39.842Z,26.62
2022-09-03T08:14:09.105Z,27.17
2022-09-03T08:16:38.311Z,27.30
2022-09-03T08:19:11.450Z,29.38
2022-09-03T08:21:38.845Z,27.85
2022-09-03T08:24:06.508Z,27.76
2022-09-03T08:26:35.621Z,26.37
2022-09-03T08:29:03.599Z,25.92
2022-09-03T08:31:30.795Z,25.92
2022-09-03T08:34:06.755Z,25.54
2022-09-03T08:36:41.490Z,27.76
2022-09-03T08:39:10.505Z,26.56
2022-09-03T08:42:02.500Z,25.66
2022-09-03T08:44:40.021Z,24.37
2022-09-03T08:47:26.115Z,25.34
2022-09-03T08:50:32.369Z,23.35
2022-09-03T08:53:22.907Z,25.07
2022-09-03T08:55:52.641Z,26.12
2022-09-03T08:58:27.012Z,23.33
2022-09-03T09:01:04.144Z,22.84
2022-09-03T09:03:34.781Z,25.54
2022-09-03T09:06:30.380Z,25.00
2022-09-03T09:09:04.757Z,25.12
2022-09-03T09:11:34.714Z,24.49
2022-09-03T09:14:09.353Z,25.25
2022-09-03T09:16:45.515Z,25.28
2022-09-03T09:19:50.909Z,23.98
2022-09-03T09:22:50.696Z,24.77
2022-09-03T09:25:22.258Z,23.55
2022-09-03T09:28:01.877Z,23.26
2022-09-03T09:30:30.640Z,22.14
2022-09-03T09:32:57.924Z,23.77
2022-09-03T09:35:24.940Z,21.87
2022-09-03T09:37:53.492Z,21.74
2022-09-03T09:40:44.900Z,22.61
2022-09-03T09:43:23.793Z,21.09
2022-09-03T09:45:52.805Z,20.24
2022-09-03T09:48:46.568Z,21.37
2022-09-03T09:51:19.081Z,23.56
2022-09-03T09:53:46.845Z,22.88
2022-09-03T09:56:24.599Z,22.18
2022-09-03T09:59:04.647Z,22.34
2022-09-03T10:01:32.192Z,22.29
2022-09-03T10:04:07.916Z,22.37
2022-09-03T10:06:53.867Z,20.57
2022-09-03T10:09:23.429Z,22.35
2022-09-03T10:12:14.410Z,21.82
2022-09-03T10:14:50.010Z,23.68
2022-09-03T10:17:28.371Z,20.77
2022-09-03T10:20:28.326Z,21.94
2022-09-03T10:23:16.507Z,22.40
2022-09-03T10:25:52.104Z,21.50
2022-09-03T10:28:24.117Z,21.89
2022-09-03T10:31:25.992Z,21.65
2022-09-03T10:34:01.981Z,21.64
2022-09-03T10:36:47.508Z,21.97
2022-09-03T10:39:23.731Z,22.40
2022-09-03T10:42:08.629Z,24.23
2022-09-03T10:44:46.521Z,22.30
2022-09-03T10:47:32.409Z,21.39
2022-09-03T10:50:16.861Z,20.61
2022-09-03T10:53:07.088Z,21.17
2022-09-03T10:56:01.002Z,21.47
2022-09-03T10:58:40.652Z,21.52
2022-09-03T11:01:23.213Z,23.65
2022-09-03T11:04:05.753Z,21.66
2022-09-03T11:06:55.567Z,22.96
2022-09-03T11:09:26.845Z,21.60
2022-09-03T11:12:03.757Z,21.97
2022-09-03T11:15:05.771Z,22.73
2022-09-03T11:17:39.791Z,22.33
2022-09-03T11:20:17.170Z,22.28
2022-09-03T11:22:45.371Z,21.36
2022-09-03T11:25:17.569Z,22.59
2022-09-03T11:27:59.010Z,22.30
2022-09-03T11:30:37.953Z,21.29
2022-09-03T11:33:11.729Z,21.19
2022-09-03T11:35:42.989Z,21.86
2022-09-03T11:38:16.660Z,21.79
2022-09-03T11:41:03.957Z,21.92
2022-09-03T11:43:32.545Z,21.89
2022-09-03T11:46:27.844Z,22.05
2022-09-03T11:48:57.821Z,21.62
2022-09-03T11:51:31.096Z,21.45
2022-09-03T11:54:07.154Z,22.14
2022-09-03T11:56:35.955Z,21.38
2022-09-03T11:59:26.794Z,20.86
2022-09-03T12:01:57.426Z,21.71
2022-09-03T12:04:42.972Z,22.12
2022-09-03T12:07:20.918Z,21.31
2022-09-03T12:09:57.659Z,21.99
2022-09-03T12:12:40.711Z,21.38
2022-09-03T12:15:19.290Z,21.96
2022-09-03T12:18:14.057Z,21.30
2022-09-03T12:20:42.180Z,20.33
2022-09-03T12:23:15.217Z,22.15
2022-09-03T12:25:47.597Z,23.19
2022-09-03T12:28:20.952Z,22.49
2022-09-03T12:30:48.403Z,22.12
2022-09-03T12:33:18.415Z,21.15
2022-09-03T12:36:02.002Z,21.58
2022-09-03T12:38:30.176Z,22.40
2022-09-03T12:43:52.059Z,23.86
2022-09-03T12:46:33.856Z,22.61
2022-09-03T12:52:06.511Z,21.74
2022-09-03T12:54:37.569Z,22.28
2022-09-03T12:57:04.983Z,22.67
2022-09-03T12:59:35.183Z,23.12
2022-09-03T13:02:12.765Z,23.09
2022-09-03T13:04:40.784Z,24.35
2022-09-03T13:07:35.233Z,22.85
2022-09-03T13:10:07.048Z,22.37
2022-09-03T13:12:53.366Z,22.73
2022-09-03T13:15:25.888Z,22.35
2022-09-03T13:18:10.134Z,22.21
2022-09-03T13:20:45.950Z,21.69
2022-09-03T13:23:25.047Z,22.89
2022-09-03T13:26:38.605Z,22.95
2022-09-03T13:29:55.175Z,23.74
2022-09-03T13:32:57.692Z,23.97
2022-09-03T13:35:40.513Z,25.56
2022-09-03T13:38:10.469Z,25.43
2022-09-03T13:40:56.322Z,24.75
2022-09-03T13:43:42.530Z,24.98
2022-09-03T13:46:47.021Z,25.23
2022-09-03T13:49:40.749Z,26.15
2022-09-03T13:52:20.417Z,25.85
2022-09-03T13:54:52.646Z,26.63
2022-09-03T13:57:48.933Z,26.68
2022-09-03T14:00:32.690Z,26.01
2022-09-03T14:03:48.588Z,26.70
2022-09-03T14:06:50.872Z,27.37
2022-09-03T14:09:34.092Z,26.14
2022-09-03T14:12:14.328Z,26.48
2022-09-03T14:15:00.253Z,26.17
2022-09-03T14:17:31.968Z,27.38
2022-09-03T14:20:11.099Z,27.02
2022-09-03T14:23:02.856Z,26.47
2022-09-03T14:25:30.163Z,27.48
2022-09-03T14:28:20.179Z,26.74
2022-09-03T14:30:56.014Z,26.62
2022-09-03T14:33:45.139Z,26.39
2022-09-03T14:37:04.870Z,25.60
2022-09-03T14:39:54.021Z,25.62
2022-09-03T14:42:45.054Z,24.81
2022-09-03T14:45:43.214Z,25.18
2022-09-03T14:48:28.881Z,25.93
2022-09-03T14:51:02.151Z,25.67
2022-09-03T14:53:55.773Z,26.13
2022-09-03T14:56:47.454Z,25.50
2022-09-03T14:59:17.256Z,25.79
2022-09-03T15:01:48.260Z,24.62
2022-09-03T15:04:32.437Z,26.09
2022-09-03T15:07:33.139Z,25.57
2022-09-03T15:10:24.990Z,25.58
2022-09-03T15:12:55.159Z,26.59
2022-09-03T15:15:46.879Z,26.01
2022-09-03T15:18:38.177Z,26.24
2022-09-03T15:21:43.889Z,26.43
2022-09-03T15:24:13.872Z,26.50
2022-09-03T15:27:11.768Z,26.23
2022-09-03T15:29:51.553Z,25.86
2022-09-03T15:32:23.070Z,26.00
2022-09-03T15:34:55.863Z,26.60
2022-09-03T15:37:28.447Z,26.53
2022-09-03T15:40:38.066Z,26.70
2022-09-03T15:43:32.139Z,27.24
2022-09-03T15:46:29.134Z,27.68
2022-09-03T15:49:19.159Z,27.92
2022-09-03T15:52:21.312Z,28.18
2022-09-03T15:55:06.444Z,28.31
2022-09-03T15:57:54.800Z,27.94
2022-09-03T16:00:22.882Z,28.76
2022-09-03T16:03:09.005Z,28.54
2022-09-03T16:05:52.307Z,27.94
2022-09-03T16:08:50.652Z,28.94
2022-09-03T16:11:26.827Z,28.95
2022-09-03T16:14:13.292Z,29.20
2022-09-03T16:17:09.967Z,29.39
2022-09-03T16:20:15.438Z,30.80
2022-09-03T16:22:49.391Z,29.70
2022-09-03T16:25:31.054Z,30.81
2022-09-03T16:28:07.662Z,30.86
2022-09-03T16:30:40.296Z,30.46
2022-09-03T16:33:26.071Z,30.65
2022-09-03T16:36:07.256Z,30.80
2022-09-03T16:38:49.505Z,31.48
2022-09-03T16:41:35.140Z,32.46
2022-09-03T16:44:10.102Z,31.84
2022-09-03T16:46:53.749Z,32.15
2022-09-03T16:50:04.718Z,32.39
2022-09-03T16:53:10.591Z,32.50
2022-09-03T16:55:52.622Z,32.56
2022-09-03T16:58:49.264Z,32.82
2022-09-03T17:01:40.827Z,32.26
2022-09-03T17:04:35.607Z,32.82
2022-09-03T17:07:27.555Z,32.78
2022-09-03T17:09:56.465Z,32.79
2022-09-03T17:12:48.584Z,32.77
2022-09-03T17:15:36.230Z,33.48
2022-09-03T17:18:11.203Z,33.47
2022-09-03T17:20:50.336Z,33.10
2022-09-03T17:23:31.457Z,33.84
2022-09-03T17:26:06.362Z,33.71
2022-09-03T17:29:10.961Z,33.99
2022-09-03T17:31:51.521Z,34.03
2022-09-03T17:34:40.825Z,34.63
2022-09-03T17:37:44.032Z,33.51
2022-09-03T17:40:22.541Z,34.18
2022-09-03T17:43:11.302Z,34.78
2022-09-03T17:46:05.588Z,34.06
2022-09-03T17:48:55.843Z,35.44
2022-09-03T17:51:48.860Z,34.41
2022-09-03T17:54:23.677Z,34.75
2022-09-03T17:57:03.419Z,34.71
2022-09-03T17:59:30.802Z,34.35
2022-09-03T18:02:10.629Z,34.26
2022-09-03T18:05:11.459Z,34.58
2022-09-03T18:07:44.814Z,35.29
2022-09-03T18:10:39.405Z,35.86
2022-09-03T18:13:30.155Z,35.75
2022-09-03T18:16:19.513Z,34.78
2022-09-03T18:18:54.397Z,35.70
2022-09-03T18:21:43.568Z,34.92
2022-09-03T18:24:43.332Z,36.09
2022-09-03T18:28:12.404Z,35.87
2022-09-03T18:30:58.041Z,35.49
2022-09-03T18:33:43.785Z,36.00
2022-09-03T18:36:30.781Z,35.11
2022-09-03T18:39:21.836Z,35.21
2022-09-03T18:42:33.740Z,34.79
2022-09-03T18:45:33.245Z,35.03
2022-09-03T18:48:52.801Z,36.16
2022-09-03T18:52:00.308Z,35.02
2022-09-03T18:55:08.309Z,35.87
2022-09-03T18:58:19.507Z,36.36
2022-09-03T19:01:22.326Z,36.17
2022-09-03T19:04:20.567Z,37.25
2022-09-03T19:07:20.733Z,37.10
2022-09-03T19:10:24.486Z,36.76
2022-09-03T19:13:22.982Z,37.70
2022-09-03T19:16:17.692Z,37.38
2022-09-03T19:19:27.941Z,37.62
2022-09-03T19:22:21.387Z,37.94
2022-09-03T19:25:12.696Z,38.90
2022-09-03T19:28:08.452Z,39.07
2022-09-03T19:31:03.399Z,38.61
2022-09-03T19:33:49.247Z,39.70
2022-09-03T19:36:59.488Z,40.13
2022-09-03T19:40:04.150Z,39.64
2022-09-03T19:43:03.451Z,40.30
2022-09-03T19:45:55.588Z,41.75
2022-09-03T19:48:58.891Z,40.91
2022-09-03T19:54:45.349Z,41.95
2022-09-03T19:57:32.975Z,43.95
2022-09-03T20:00:31.308Z,43.08
2022-09-03T20:03:20.302Z,42.97
2022-09-03T20:06:10.742Z,42.68
2022-09-03T20:08:57.183Z,43.21
2022-09-03T20:11:25.500Z,42.28
2022-09-03T20:14:11.039Z,43.31
2022-09-03T20:16:53.170Z,43.02
2022-09-03T20:19:41.129Z,43.89
2022-09-03T20:22:19.065Z,42.79
2022-09-03T20:25:30.911Z,42.90
2022-09-03T20:28:26.375Z,44.40
2022-09-03T20:30:56.398Z,44.27
2022-09-03T20:33:53.083Z,43.62
2022-09-03T20:36:41.885Z,44.20
2022-09-03T20:39:24.191Z,45.27
2022-09-03T20:42:21.943Z,44.76
2022-09-03T20:44:54.685Z,43.99
2022-09-03T20:47:21.514Z,43.84
2022-09-03T20:49:57.185Z,44.25
2022-09-03T20:52:35.096Z,44.27
2022-09-03T20:55:20.377Z,44.76
2022-09-03T20:58:04.499Z,44.06
2022-09-03T21:00:52.115Z,44.91
2022-09-03T21:03:29.414Z,44.72
2022-09-03T21:06:17.775Z,44.79
2022-09-03T21:09:04.317Z,44.43
2022-09-03T21:11:48.032Z,45.62
2022-09-03T21:14:33.566Z,45.54
2022-09-03T21:17:31.159Z,46.20
2022-09-03T21:20:16.544Z,46.04
2022-09-03T21:23:16.656Z,45.80
2022-09-03T21:26:25.537Z,46.46
2022-09-03T21:29:04.668Z,46.51
2022-09-03T21:31:49.891Z,45.93
2022-09-03T21:34:46.802Z,46.31
2022-09-03T21:37:14.553Z,46.17
2022-09-03T21:39:51.862Z,45.94
2022-09-03T21:42:50.238Z,46.93
2022-09-03T21:45:39.522Z,46.63
2022-09-03T21:48:13.709Z,47.38
2022-09-03T21:50:58.072Z,46.99
2022-09-03T21:53:46.383Z,47.21
2022-09-03T21:56:16.659Z,48.30
2022-09-03T21:59:08.922Z,47.97
2022-09-03T22:02:11.708Z,48.31
2022-09-03T22:04:38.644Z,48.08
2022-09-03T22:07:12.693Z,48.07
2022-09-03T22:10:01.016Z,48.67
2022-09-03T22:12:43.085Z,48.26
2022-09-03T22:15:13.343Z,48.25
2022-09-03T22:17:47.028Z,47.66
2022-09-03T22:20:15.626Z,47.91
2022-09-03T22:22:57.588Z,48.48
2022-09-03T22:25:31.357Z,48.67
2022-09-03T22:28:03.228Z,47.75
2022-09-03T22:30:45.514Z,48.47
2022-09-03T22:33:30.316Z,47.34
2022-09-03T22:36:13.579Z,47.18
2022-09-03T22:39:00.698Z,47.19
2022-09-03T22:42:00.169Z,47.18
2022-09-03T22:44:31.605Z,46.65
2022-09-03T22:47:20.039Z,47.81
2022-09-03T22:50:25.187Z,48.74
2022-09-03T22:53:04.492Z,47.07
2022-09-03T22:55:31.637Z,47.31
2022-09-03T22:58:01.554Z,48.10
2022-09-03T23:00:39.768Z,47.08
2022-09-03T23:03:19.489Z,47.34
2022-09-03T23:06:01.401Z,47.92
2022-09-03T23:08:39.578Z,47.27
2022-09-03T23:11:47.464Z,46.92
2022-09-03T23:14:19.898Z,46.09
2022-09-03T23:16:54.789Z,45.27
2022-09-03T23:19:52.818Z,45.45
2022-09-03T23:22:32.319Z,47.13
2022-09-03T23:25:15.413Z,46.79
2022-09-03T23:27:48.399Z,47.93
2022-09-03T23:30:15.890Z,47.70
2022-09-03T23:32:43.982Z,47.41
2022-09-03T23:35:17.842Z,47.14
2022-09-03T23:38:01.015Z,46.72
2022-09-03T23:40:55.036Z,46.65
2022-09-03T23:43:51.634Z,47.22
2022-09-03T23:46:21.968Z,47.02
2022-09-03T23:48:58.238Z,47.18
2022-09-03T23:51:58.347Z,47.59
2022-09-03T23:54:46.679Z,48.33
2022-09-03T23:57:38.862Z,47.98
